Time;durP1;ratioP1;P1;durP2;ratioP2;P2;SDS_P1;SDS_P2;PMS_P1;PMS_P2;Temp;Humidity;BMP_temperature;BMP_pressure;BME280_temperature;BME280_humidity;BME280_pressure;Samples;Min_cycle;Max_cycle;Signal;HPM_P1;HPM_P2
2021/12/18 00:02:02;;;;;;;4.17;3.10;;;8.10;11.20;;;;;;5030558;28;20519;-73
2021/12/18 00:04:28;;;;;;;3.00;2.53;;;8.10;7.20;;;;;;5032709;28;20926;-72
2021/12/18 00:06:55;;;;;;;2.83;2.60;;;8.10;7.20;;;;;;5032815;28;20427;-71
2021/12/18 00:09:21;;;;;;;2.17;2.07;;;8.00;5.50;;;;;;5032544;28;20196;-74
2021/12/18 00:11:48;;;;;;;2.73;2.53;;;8.00;5.50;;;;;;5032810;28;20405;-76
2021/12/18 00:14:15;;;;;;;2.90;2.60;;;8.00;4.40;;;;;;5031795;28;20920;-74
2021/12/18 00:16:41;;;;;;;3.10;2.80;;;8.00;7.00;;;;;;5031759;28;20582;-74
2021/12/18 00:19:07;;;;;;;4.27;2.70;;;8.10;7.10;;;;;;5032654;28;20451;-72
2021/12/18 00:21:36;;;;;;;4.60;3.10;;;8.10;7.10;;;;;;5032642;28;20446;-74
2021/12/18 00:24:06;;;;;;;3.60;2.50;;;8.10;7.10;;;;;;5031731;28;20162;-74
2021/12/18 00:26:32;;;;;;;2.67;2.43;;;8.10;7.70;;;;;;5031058;28;20452;-72
2021/12/18 00:28:59;;;;;;;2.67;2.47;;;8.10;7.10;;;;;;5031285;28;21019;-74
2021/12/18 00:31:24;;;;;;;2.80;2.60;;;8.00;1.00;;;;;;5031133;28;21719;-71
2021/12/18 00:33:50;;;;;;;2.87;2.57;;;7.90;1.00;;;;;;5031156;28;20926;-74
2021/12/18 00:36:15;;;;;;;2.90;2.37;;;7.80;1.10;;;;;;5034444;28;20197;-71
2021/12/18 00:38:42;;;;;;;2.10;1.90;;;7.80;1.80;;;;;;5036312;28;20198;-70
2021/12/18 00:43:38;;;;;;;2.53;2.33;;;7.80;6.90;;;;;;5035310;28;20435;-74
2021/12/18 00:46:04;;;;;;;2.30;2.10;;;7.80;10.40;;;;;;5036195;28;20426;-74
2021/12/18 00:48:31;;;;;;;2.90;2.60;;;7.90;13.10;;;;;;5036021;28;20492;-74
2021/12/18 00:50:57;;;;;;;2.77;2.57;;;7.90;13.20;;;;;;5035819;28;20430;-71
2021/12/18 00:53:23;;;;;;;2.63;2.43;;;8.00;14.00;;;;;;5034074;28;20418;-74
2021/12/18 00:55:51;;;;;;;3.40;2.90;;;8.00;13.20;;;;;;5036202;28;20795;-74
2021/12/18 00:58:17;;;;;;;2.97;2.77;;;7.90;13.10;;;;;;5035554;28;20263;-74
2021/12/18 01:00:44;;;;;;;2.97;2.77;;;7.90;12.80;;;;;;5035908;28;20484;-71
2021/12/18 01:03:19;;;;;;;3.03;2.50;;;7.90;14.10;;;;;;5034947;28;20412;-73
2021/12/18 01:05:46;;;;;;;2.87;2.57;;;7.90;13.10;;;;;;5036040;28;20838;-74
2021/12/18 01:08:12;;;;;;;2.20;2.00;;;8.00;14.50;;;;;;5035534;28;20484;-74
2021/12/18 01:13:13;;;;;;;2.33;2.13;;;8.00;13.30;;;;;;5033987;28;20435;-74
2021/12/18 01:15:46;;;;;;;3.47;3.17;;;8.00;13.80;;;;;;5035658;28;20521;-71
2021/12/18 01:23:39;;;;;;;3.07;1.93;;;7.90;11.90;;;;;;5015034;28;20457;-74
2021/12/18 01:26:05;;;;;;;3.00;2.73;;;7.90;13.10;;;;;;5015059;28;20522;-72
2021/12/18 01:28:32;;;;;;;3.07;2.80;;;8.00;13.30;;;;;;5035352;28;20184;-72
2021/12/18 01:30:58;;;;;;;3.80;3.50;;;7.90;13.10;;;;;;5034625;28;20173;-74
2021/12/18 01:33:24;;;;;;;4.30;3.30;;;7.90;13.50;;;;;;5034300;28;20548;-70
2021/12/18 01:35:52;;;;;;;2.73;2.53;;;7.90;14.70;;;;;;5035466;28;20436;-70
2021/12/18 01:38:18;;;;;;;3.90;3.60;;;8.00;17.40;;;;;;5035015;28;20247;-71
2021/12/18 01:40:44;;;;;;;3.80;3.00;;;8.00;15.90;;;;;;5035160;28;20452;-71
2021/12/18 01:53:42;;;;;;;2.67;2.47;;;7.90;13.10;;;;;;5014590;28;20503;-71
2021/12/18 01:56:09;;;;;;;2.23;2.03;;;8.00;14.90;;;;;;5017945;28;20582;-73
2021/12/18 01:58:35;;;;;;;1.97;1.80;;;7.90;14.20;;;;;;5034852;28;20485;-72
2021/12/18 02:01:04;;;;;;;2.43;2.23;;;8.00;15.00;;;;;;5034399;28;20447;-71
2021/12/18 02:03:32;;;;;;;2.90;2.70;;;8.00;15.40;;;;;;5033879;28;21128;-71
2021/12/18 02:05:57;;;;;;;4.30;2.93;;;8.10;15.60;;;;;;5033868;28;20422;-71
2021/12/18 02:08:26;;;;;;;2.37;2.20;;;8.00;13.80;;;;;;5034366;28;20811;-73
2021/12/18 02:10:59;;;;;;;2.40;2.20;;;8.00;13.20;;;;;;5034464;28;20164;-70
2021/12/18 02:21:11;;;;;;;2.17;2.03;;;8.10;12.90;;;;;;5034500;28;20994;-74
2021/12/18 02:23:37;;;;;;;1.90;1.80;;;8.00;12.10;;;;;;5013736;28;20421;-71
2021/12/18 02:26:03;;;;;;;3.47;2.13;;;8.00;10.20;;;;;;5013712;28;20428;-72
2021/12/18 02:28:29;;;;;;;1.80;1.70;;;8.00;12.40;;;;;;5048854;28;20418;-71
2021/12/18 02:30:56;;;;;;;1.53;1.43;;;7.90;10.60;;;;;;5034181;28;20172;-71
2021/12/18 02:33:22;;;;;;;1.93;1.83;;;7.90;9.90;;;;;;5033097;28;20231;-73
2021/12/18 02:35:50;;;;;;;1.73;1.60;;;7.90;11.20;;;;;;5034340;28;20424;-73
2021/12/18 02:38:20;;;;;;;1.57;1.47;;;7.90;11.50;;;;;;5033969;28;20992;-74
2021/12/18 02:43:34;;;;;;;1.40;1.30;;;7.90;13.10;;;;;;5032680;28;20810;-72
2021/12/18 02:46:06;;;;;;;1.57;1.47;;;8.00;12.60;;;;;;5033153;28;20884;-72
2021/12/18 02:48:37;;;;;;;1.50;1.40;;;8.00;12.90;;;;;;5032273;28;20798;-73
2021/12/18 02:51:05;;;;;;;1.73;1.63;;;8.00;12.20;;;;;;5032810;28;20449;-74
2021/12/18 02:53:31;;;;;;;2.80;1.60;;;8.00;10.90;;;;;;5032919;28;20411;-70
2021/12/18 02:56:00;;;;;;;1.30;1.20;;;7.90;8.80;;;;;;5033490;28;20445;-74
2021/12/18 02:58:26;;;;;;;1.20;1.10;;;7.90;10.70;;;;;;5033222;28;20966;-73
2021/12/18 03:00:54;;;;;;;2.43;1.93;;;8.00;11.70;;;;;;5033330;28;20448;-73
2021/12/18 03:03:24;;;;;;;1.70;1.60;;;8.00;10.30;;;;;;5031733;28;20418;-71
2021/12/18 03:06:04;;;;;;;1.50;1.40;;;7.90;7.30;;;;;;5033477;28;20573;-73
2021/12/18 03:09:00;;;;;;;1.80;1.70;;;7.90;9.40;;;;;;5033442;28;20477;-71
2021/12/18 03:25:39;;;;;;;1.60;1.50;;;7.90;8.10;;;;;;5033184;28;20482;-72
2021/12/18 03:27:46;;;;;;;1.70;1.60;;;7.90;8.00;;;;;;5035293;28;20445;-71
2021/12/18 03:30:12;;;;;;;1.60;1.50;;;7.90;7.00;;;;;;5032080;28;20457;-72
2021/12/18 03:32:38;;;;;;;2.23;1.50;;;7.90;7.00;;;;;;5032077;28;20455;-72
2021/12/18 03:35:05;;;;;;;1.60;1.50;;;7.80;6.90;;;;;;5033311;28;20930;-72
2021/12/18 03:37:33;;;;;;;1.90;1.77;;;7.80;5.90;;;;;;5032770;28;20426;-71
2021/12/18 03:39:59;;;;;;;2.03;1.60;;;7.70;3.10;;;;;;5032234;28;20414;-74
2021/12/18 03:42:25;;;;;;;1.83;1.63;;;7.70;6.50;;;;;;5030641;28;20491;-71
2021/12/18 03:44:51;;;;;;;2.23;1.80;;;7.70;6.80;;;;;;5033142;28;21023;-73
2021/12/18 03:47:16;;;;;;;1.80;1.70;;;7.80;6.90;;;;;;5032787;28;20553;-72
2021/12/18 03:49:42;;;;;;;1.77;1.67;;;7.70;6.80;;;;;;5033021;28;20167;-73
2021/12/18 03:52:08;;;;;;;2.07;1.87;;;7.70;6.80;;;;;;5031847;28;20587;-71
2021/12/18 03:54:34;;;;;;;1.93;1.80;;;7.70;6.80;;;;;;5033083;28;20640;-74
2021/12/18 03:56:59;;;;;;;2.80;1.53;;;7.70;6.80;;;;;;5032722;28;20244;-73
2021/12/18 03:59:25;;;;;;;1.90;1.77;;;7.70;6.80;;;;;;5032437;28;20164;-73
2021/12/18 04:01:51;;;;;;;2.30;1.83;;;7.60;5.00;;;;;;5031571;28;20291;-72
2021/12/18 04:04:17;;;;;;;1.80;1.70;;;7.60;6.20;;;;;;5032286;28;20415;-73
2021/12/18 04:06:43;;;;;;;1.63;1.53;;;7.60;4.80;;;;;;5032557;28;20199;-71
2021/12/18 04:09:13;;;;;;;1.67;1.57;;;7.60;3.40;;;;;;5033449;28;20179;-73
2021/12/18 04:11:40;;;;;;;1.77;1.67;;;7.40;1.00;;;;;;5036785;28;20505;-73
2021/12/18 04:14:06;;;;;;;2.30;2.20;;;7.40;1.00;;;;;;5034727;28;20979;-74
2021/12/18 04:16:32;;;;;;;1.93;1.77;;;7.30;1.00;;;;;;5031407;28;20433;-74
2021/12/18 04:19:01;;;;;;;1.40;1.30;;;7.30;1.00;;;;;;5017118;28;20883;-73
2021/12/18 04:21:31;;;;;;;1.77;1.60;;;7.30;1.00;;;;;;5023404;28;20544;-71
2021/12/18 04:23:56;;;;;;;1.57;1.47;;;7.20;1.00;;;;;;5034824;28;20502;-74
2021/12/18 04:26:22;;;;;;;3.60;1.50;;;7.10;1.00;;;;;;5035171;28;20970;-73
2021/12/18 04:28:48;;;;;;;1.80;1.70;;;7.00;1.00;;;;;;5036699;28;20172;-70
2021/12/18 04:31:14;;;;;;;2.07;1.87;;;7.10;1.00;;;;;;5036396;28;20453;-73
2021/12/18 04:33:39;;;;;;;1.97;1.80;;;7.10;1.00;;;;;;5033954;28;20536;-71
2021/12/18 04:36:05;;;;;;;2.13;1.80;;;7.10;1.00;;;;;;5036046;28;20285;-72
2021/12/18 04:38:31;;;;;;;3.00;2.03;;;7.10;1.00;;;;;;5036618;28;20176;-71
2021/12/18 04:40:58;;;;;;;2.50;2.30;;;7.10;1.00;;;;;;5036073;28;20808;-74
2021/12/18 04:43:24;;;;;;;3.07;2.10;;;7.10;1.00;;;;;;5035537;28;20402;-71
2021/12/18 04:45:49;;;;;;;2.50;2.30;;;7.20;1.00;;;;;;5036385;28;20422;-73
2021/12/18 04:48:15;;;;;;;2.67;2.37;;;7.20;1.00;;;;;;5035927;28;20179;-73
2021/12/18 04:50:41;;;;;;;3.10;2.50;;;7.30;1.00;;;;;;5035446;28;20231;-71
2021/12/18 04:53:06;;;;;;;3.30;3.00;;;7.30;1.00;;;;;;5034957;28;20171;-73
2021/12/18 04:55:33;;;;;;;2.13;1.93;;;7.20;1.00;;;;;;5036097;28;20196;-72
2021/12/18 04:57:58;;;;;;;2.20;1.90;;;7.20;1.00;;;;;;5035825;28;20225;-71
2021/12/18 05:00:36;;;;;;;2.00;1.80;;;7.10;1.00;;;;;;5036050;28;20501;-71
2021/12/18 05:03:05;;;;;;;2.60;2.40;;;7.10;1.00;;;;;;5034909;28;20168;-72
2021/12/18 05:05:31;;;;;;;1.80;1.70;;;7.10;1.00;;;;;;5035892;28;20422;-73
2021/12/18 05:07:57;;;;;;;1.70;1.60;;;7.10;1.00;;;;;;5034642;28;20463;-73
2021/12/18 05:10:23;;;;;;;1.40;1.30;;;7.10;1.00;;;;;;5035076;28;20485;-74
2021/12/18 05:12:49;;;;;;;1.77;1.60;;;7.10;1.00;;;;;;5020909;28;20172;-73
2021/12/18 05:15:15;;;;;;;1.80;1.70;;;7.00;1.00;;;;;;5015976;28;20450;-73
2021/12/18 05:17:40;;;;;;;1.73;1.63;;;7.00;1.00;;;;;;5030148;28;20186;-73
2021/12/18 05:20:07;;;;;;;1.60;1.50;;;6.90;1.00;;;;;;5034681;28;20199;-73
2021/12/18 05:22:33;;;;;;;2.20;2.10;;;6.90;1.00;;;;;;5033613;28;20281;-72
2021/12/18 05:24:58;;;;;;;1.77;1.67;;;6.80;1.00;;;;;;5034115;28;20438;-75
2021/12/18 05:27:24;;;;;;;1.47;1.37;;;6.90;1.00;;;;;;5034837;28;20660;-73
2021/12/18 05:29:49;;;;;;;2.03;1.93;;;6.80;1.00;;;;;;5035683;28;20636;-71
2021/12/18 05:32:15;;;;;;;3.13;1.90;;;6.80;1.00;;;;;;5034206;28;20183;-73
2021/12/18 05:34:41;;;;;;;1.50;1.40;;;6.90;1.00;;;;;;5034099;28;20172;-73
2021/12/18 05:40:05;;;;;;;10.53;1.90;;;6.90;1.00;;;;;;5033927;28;20230;-71
2021/12/18 05:42:31;;;;;;;2.47;2.27;;;6.90;1.00;;;;;;5014370;28;20455;-72
2021/12/18 05:44:57;;;;;;;3.47;2.30;;;6.90;1.00;;;;;;5015456;28;20410;-71
2021/12/18 05:47:22;;;;;;;2.10;2.00;;;6.80;1.00;;;;;;5031693;28;20600;-73
2021/12/18 05:49:48;;;;;;;2.07;1.87;;;6.80;1.00;;;;;;5034874;28;20168;-71
2021/12/18 05:52:13;;;;;;;2.20;1.97;;;6.80;1.00;;;;;;5034244;28;20175;-72
2021/12/18 05:54:42;;;;;;;2.63;2.40;;;6.90;1.00;;;;;;5034664;28;20179;-73
2021/12/18 05:57:10;;;;;;;4.17;2.20;;;6.90;1.00;;;;;;5033919;28;20195;-73
2021/12/18 05:59:35;;;;;;;2.67;2.47;;;6.90;1.00;;;;;;5034779;28;20525;-72
2021/12/18 06:02:01;;;;;;;2.93;2.53;;;6.90;1.00;;;;;;5034014;28;20548;-73
2021/12/18 06:04:27;;;;;;;2.30;2.10;;;6.90;1.00;;;;;;5034733;28;20167;-72
2021/12/18 06:07:03;;;;;;;3.33;2.17;;;6.90;1.00;;;;;;5032746;28;20426;-73
2021/12/18 06:09:28;;;;;;;2.87;2.00;;;7.00;1.00;;;;;;5034446;28;20576;-73
2021/12/18 06:11:54;;;;;;;2.93;2.57;;;7.00;1.00;;;;;;5034414;28;20493;-73
2021/12/18 06:14:20;;;;;;;3.90;2.87;;;7.00;1.00;;;;;;5023388;28;20172;-72
2021/12/18 06:16:45;;;;;;;5.23;3.40;;;7.00;1.00;;;;;;5014729;28;20269;-73
2021/12/18 06:19:11;;;;;;;2.70;2.50;;;6.90;1.00;;;;;;5028321;28;20540;-73
2021/12/18 06:21:36;;;;;;;2.93;2.63;;;6.90;1.10;;;;;;5034702;28;20201;-73
2021/12/18 06:24:02;;;;;;;2.80;2.60;;;6.90;6.20;;;;;;5033283;28;20175;-74
2021/12/18 06:26:28;;;;;;;2.77;2.40;;;6.90;8.00;;;;;;5032896;28;20726;-74
2021/12/18 06:28:55;;;;;;;2.83;2.53;;;6.90;9.60;;;;;;5034013;28;20445;-73
2021/12/18 06:31:21;;;;;;;3.17;2.87;;;7.00;11.70;;;;;;5034418;28;20233;-73
2021/12/18 06:33:47;;;;;;;3.20;2.90;;;7.00;13.40;;;;;;5032272;28;20505;-72
2021/12/18 06:36:12;;;;;;;2.30;1.93;;;7.00;15.30;;;;;;5034022;28;20521;-71
2021/12/18 06:38:38;;;;;;;2.70;2.50;;;7.00;18.30;;;;;;5032546;28;20214;-71
2021/12/18 06:41:04;;;;;;;3.63;2.67;;;7.00;18.40;;;;;;5033552;28;20245;-75
2021/12/18 06:43:29;;;;;;;2.33;2.13;;;7.00;18.30;;;;;;5032655;28;20167;-72
2021/12/18 06:45:55;;;;;;;2.00;1.80;;;7.00;18.30;;;;;;5033774;28;20719;-74
2021/12/18 06:48:21;;;;;;;2.73;2.40;;;6.80;14.80;;;;;;5034238;28;20571;-73
2021/12/18 06:50:46;;;;;;;2.43;2.23;;;6.80;18.20;;;;;;5032654;28;20191;-72
2021/12/18 06:53:12;;;;;;;2.70;2.50;;;6.80;29.70;;;;;;5032009;28;20222;-73
2021/12/18 06:55:38;;;;;;;2.17;1.97;;;6.80;32.60;;;;;;5033812;28;20195;-73
2021/12/18 06:58:04;;;;;;;1.70;1.60;;;6.80;40.10;;;;;;5032387;28;20258;-73
2021/12/18 07:00:30;;;;;;;2.10;2.00;;;6.80;43.80;;;;;;5033505;28;20621;-73
2021/12/18 07:02:56;;;;;;;2.60;2.40;;;6.80;45.50;;;;;;5032967;28;20398;-71
2021/12/18 07:05:22;;;;;;;2.43;2.23;;;6.90;50.00;;;;;;5033589;28;20406;-72
2021/12/18 07:07:50;;;;;;;2.00;1.83;;;6.90;54.20;;;;;;5033735;28;20875;-69
2021/12/18 07:10:16;;;;;;;1.83;1.73;;;6.90;57.70;;;;;;5033608;28;20441;-68
2021/12/18 07:12:42;;;;;;;2.53;2.23;;;6.90;57.70;;;;;;5033104;28;20455;-69
2021/12/18 07:15:09;;;;;;;2.03;1.93;;;7.00;57.80;;;;;;5033469;28;20950;-69
2021/12/18 07:17:35;;;;;;;2.30;2.10;;;7.00;58.50;;;;;;5033526;28;20172;-70
2021/12/18 07:20:01;;;;;;;2.03;1.93;;;7.00;59.50;;;;;;5032628;28;20763;-70
2021/12/18 07:22:27;;;;;;;2.33;2.23;;;7.00;59.60;;;;;;5032742;28;20187;-69
2021/12/18 07:24:52;;;;;;;2.87;2.50;;;7.10;58.30;;;;;;5033251;28;21162;-70
2021/12/18 07:27:18;;;;;;;2.47;2.27;;;7.00;57.80;;;;;;5033192;28;20215;-73
2021/12/18 07:29:44;;;;;;;4.90;2.70;;;7.00;57.80;;;;;;5032057;28;20226;-74
2021/12/18 07:32:09;;;;;;;2.53;2.37;;;7.00;59.20;;;;;;5031427;28;20178;-72
2021/12/18 07:34:35;;;;;;;2.50;2.30;;;6.90;57.70;;;;;;5032999;28;20647;-71
2021/12/18 07:37:01;;;;;;;2.10;2.00;;;7.00;61.40;;;;;;5032973;28;20267;-71
2021/12/18 07:39:27;;;;;;;2.40;2.20;;;7.00;63.10;;;;;;5032077;28;20790;-72
2021/12/18 07:41:53;;;;;;;2.90;2.70;;;7.10;64.90;;;;;;5032886;28;20450;-74
2021/12/18 07:44:18;;;;;;;2.90;2.60;;;7.00;63.30;;;;;;5031053;28;20168;-73
2021/12/18 07:46:44;;;;;;;2.80;2.60;;;7.10;64.80;;;;;;5033024;28;20183;-71
2021/12/18 07:49:09;;;;;;;2.50;2.30;;;7.10;66.40;;;;;;5033121;28;20560;-72
2021/12/18 07:51:36;;;;;;;2.90;2.70;;;7.20;67.30;;;;;;5032128;28;20189;-72
2021/12/18 07:54:03;;;;;;;3.30;3.00;;;7.10;66.70;;;;;;5030729;28;20652;-74
2021/12/18 07:56:29;;;;;;;2.70;2.50;;;7.20;68.40;;;;;;5032000;28;20861;-72
2021/12/18 07:58:55;;;;;;;3.03;2.80;;;7.20;68.40;;;;;;5033029;28;20398;-72
2021/12/18 08:01:20;;;;;;;3.03;2.70;;;7.20;68.40;;;;;;5032713;28;20675;-72
2021/12/18 08:03:46;;;;;;;3.37;3.07;;;7.20;68.10;;;;;;5032121;28;20178;-72
2021/12/18 08:06:12;;;;;;;3.27;2.60;;;7.10;67.40;;;;;;5032473;28;20270;-71
2021/12/18 08:08:38;;;;;;;2.73;2.53;;;7.10;68.20;;;;;;5032883;28;20389;-73
2021/12/18 08:11:04;;;;;;;2.80;2.60;;;7.10;68.30;;;;;;5032785;28;20175;-71
2021/12/18 08:13:30;;;;;;;2.83;2.40;;;7.10;68.80;;;;;;5030564;28;20175;-73
2021/12/18 08:15:55;;;;;;;2.70;2.50;;;7.20;70.10;;;;;;5030600;28;20553;-72
2021/12/18 08:18:21;;;;;;;2.30;2.10;;;7.20;70.70;;;;;;5032957;28;20406;-72
2021/12/18 08:20:47;;;;;;;2.67;2.33;;;7.10;69.70;;;;;;5032395;28;20660;-73
2021/12/18 08:23:12;;;;;;;2.13;2.03;;;7.10;70.40;;;;;;5031980;28;20160;-74
2021/12/18 08:25:38;;;;;;;2.27;2.07;;;7.10;71.80;;;;;;5025138;28;20188;-72
2021/12/18 08:28:05;;;;;;;2.20;2.10;;;7.10;73.20;;;;;;5012884;28;20172;-73
2021/12/18 08:30:35;;;;;;;2.10;1.93;;;7.20;74.30;;;;;;5022188;28;20714;-72
2021/12/18 08:33:01;;;;;;;1.73;1.63;;;7.20;75.20;;;;;;5030179;28;20413;-73
2021/12/18 08:35:29;;;;;;;2.80;2.10;;;7.20;75.00;;;;;;5032024;28;20430;-72
2021/12/18 08:37:56;;;;;;;2.17;2.07;;;7.20;76.40;;;;;;5032481;28;20477;-73
2021/12/18 08:40:22;;;;;;;2.10;1.93;;;7.30;76.30;;;;;;5031862;28;20421;-72
2021/12/18 08:42:48;;;;;;;2.00;1.90;;;7.30;77.10;;;;;;5030256;28;20896;-72
2021/12/18 08:45:15;;;;;;;2.13;1.83;;;7.30;76.90;;;;;;5032224;28;20424;-72
2021/12/18 08:47:41;;;;;;;2.47;2.27;;;7.30;74.80;;;;;;5032590;28;20254;-73
2021/12/18 08:50:09;;;;;;;2.60;2.37;;;7.20;75.10;;;;;;5031956;28;20524;-72
2021/12/18 08:52:35;;;;;;;2.10;2.00;;;7.30;77.00;;;;;;5030725;28;20440;-74
2021/12/18 08:55:01;;;;;;;2.30;2.20;;;7.30;78.00;;;;;;5030981;28;20422;-71
2021/12/18 08:57:27;;;;;;;2.73;2.53;;;7.40;78.10;;;;;;5034765;28;20433;-73
2021/12/18 08:59:53;;;;;;;2.53;2.23;;;7.40;78.10;;;;;;5035863;28;20430;-74
2021/12/18 09:02:18;;;;;;;2.10;2.00;;;7.40;77.00;;;;;;5034778;28;20466;-71
2021/12/18 09:04:44;;;;;;;2.77;2.57;;;7.40;77.20;;;;;;5035718;28;20254;-72
2021/12/18 09:07:10;;;;;;;1.77;1.67;;;7.40;78.10;;;;;;5035835;28;20285;-72
2021/12/18 09:09:37;;;;;;;2.50;2.40;;;7.40;78.10;;;;;;5034508;28;20178;-71
2021/12/18 09:12:03;;;;;;;2.10;2.00;;;7.40;77.40;;;;;;5034199;28;20506;-74
2021/12/18 09:14:29;;;;;;;3.30;2.20;;;7.40;78.10;;;;;;5035773;28;20438;-72
2021/12/18 09:16:54;;;;;;;2.40;2.20;;;7.40;78.10;;;;;;5035670;28;21033;-71
2021/12/18 09:19:20;;;;;;;2.93;2.30;;;7.40;78.10;;;;;;5035619;28;20255;-71
2021/12/18 09:21:46;;;;;;;2.07;1.90;;;7.40;78.10;;;;;;5035575;28;20282;-77
2021/12/18 09:24:12;;;;;;;5.33;2.30;;;7.50;79.20;;;;;;5035073;28;20497;-73
2021/12/18 09:26:38;;;;;;;2.27;2.07;;;7.60;80.70;;;;;;5035386;28;20191;-71
2021/12/18 09:29:04;;;;;;;3.83;2.93;;;7.50;78.40;;;;;;5035413;28;20226;-72
2021/12/18 09:31:29;;;;;;;2.87;2.13;;;7.50;79.30;;;;;;5034582;28;20402;-72
2021/12/18 09:33:55;;;;;;;2.57;2.37;;;7.60;81.10;;;;;;5033089;28;20171;-72
2021/12/18 09:36:21;;;;;;;2.57;2.37;;;7.60;80.30;;;;;;5035152;28;20195;-72
2021/12/18 09:38:47;;;;;;;4.80;2.77;;;7.60;79.60;;;;;;5035255;28;20262;-71
2021/12/18 09:41:13;;;;;;;3.77;2.67;;;7.60;80.90;;;;;;5035110;28;20533;-73
2021/12/18 09:43:39;;;;;;;2.80;2.60;;;7.60;81.90;;;;;;5034617;28;20168;-71
2021/12/18 09:46:11;;;;;;;3.30;3.00;;;7.60;82.10;;;;;;5034982;28;20461;-71
2021/12/18 09:48:38;;;;;;;5.73;3.33;;;7.70;82.60;;;;;;5034130;28;20434;-71
2021/12/18 09:51:09;;;;;;;8.10;4.20;;;7.70;83.00;;;;;;5033531;28;20438;-72
2021/12/18 09:53:35;;;;;;;3.60;3.20;;;7.70;84.00;;;;;;5034378;28;20431;-71
2021/12/18 09:56:04;;;;;;;2.83;2.60;;;7.80;85.10;;;;;;5034872;28;20422;-72
2021/12/18 09:58:30;;;;;;;3.80;2.60;;;7.80;83.80;;;;;;5035014;28;20445;-72
2021/12/18 10:00:56;;;;;;;3.83;2.87;;;7.80;83.50;;;;;;5034882;28;20478;-72
2021/12/18 10:03:22;;;;;;;4.30;3.00;;;7.90;83.90;;;;;;5034221;28;20405;-72
2021/12/18 10:05:47;;;;;;;5.70;3.00;;;7.90;84.60;;;;;;5034488;28;20393;-73
2021/12/18 10:08:17;;;;;;;3.70;2.73;;;7.90;84.00;;;;;;5033710;28;20178;-73
2021/12/18 10:11:07;;;;;;;4.27;3.03;;;8.00;85.40;;;;;;5034609;28;20174;-72
2021/12/18 10:13:54;;;;;;;11.10;3.93;;;8.10;84.60;;;;;;5033522;28;20414;-72
2021/12/18 10:16:22;;;;;;;2.83;2.57;;;8.10;84.30;;;;;;5034590;28;20411;-72
2021/12/18 10:18:49;;;;;;;5.03;3.87;;;8.20;84.50;;;;;;5034602;28;20892;-71
2021/12/18 10:21:18;;;;;;;3.00;2.70;;;8.20;85.40;;;;;;5034491;28;20450;-73
2021/12/18 10:23:47;;;;;;;6.33;3.00;;;8.30;85.00;;;;;;5033307;28;20756;-74
2021/12/18 10:26:48;;;;;;;5.57;3.83;;;8.30;84.80;;;;;;5034173;28;20420;-72
2021/12/18 10:29:34;;;;;;;3.40;2.93;;;8.40;84.30;;;;;;5032295;28;20411;-72
2021/12/18 10:32:15;;;;;;;13.10;3.23;;;8.50;83.50;;;;;;5033545;28;20924;-73
2021/12/18 10:34:49;;;;;;;11.37;2.93;;;8.50;81.20;;;;;;5034196;28;20895;-71
2021/12/18 10:37:21;;;;;;;3.57;3.27;;;8.50;79.20;;;;;;5034219;28;20848;-73
2021/12/18 10:39:53;;;;;;;7.13;2.30;;;8.60;79.60;;;;;;5034396;28;20741;-71
2021/12/18 10:42:39;;;;;;;7.90;3.47;;;8.60;78.90;;;;;;5032205;28;21010;-71
2021/12/18 10:45:19;;;;;;;6.40;2.87;;;8.70;74.30;;;;;;5033369;28;20408;-72
2021/12/18 10:47:49;;;;;;;16.60;3.60;;;8.70;68.00;;;;;;5034226;28;20756;-72
2021/12/18 10:50:24;;;;;;;6.63;3.77;;;8.70;61.60;;;;;;5033951;28;20450;-72
2021/12/18 10:53:13;;;;;;;4.33;2.90;;;8.60;54.80;;;;;;5033237;28;20406;-70
2021/12/18 10:55:48;;;;;;;5.63;2.40;;;8.60;52.70;;;;;;5033902;28;20931;-71
2021/12/18 10:58:18;;;;;;;8.07;3.30;;;8.60;42.50;;;;;;5033832;28;20410;-71
2021/12/18 11:00:48;;;;;;;3.63;3.20;;;8.60;41.60;;;;;;5033118;28;20501;-74
2021/12/18 11:03:15;;;;;;;7.17;2.70;;;8.70;43.50;;;;;;5032662;28;20410;-70
2021/12/18 11:05:41;;;;;;;10.30;3.37;;;8.70;37.90;;;;;;5033823;28;20693;-71
2021/12/18 11:08:09;;;;;;;3.80;3.00;;;8.70;32.90;;;;;;5033631;28;20788;-73
2021/12/18 11:15:51;;;;;;;7.83;2.70;;;8.70;23.30;;;;;;5034054;28;20477;-73
2021/12/18 11:18:19;;;;;;;4.60;3.20;;;8.80;19.70;;;;;;5033804;28;20877;-73
2021/12/18 11:20:49;;;;;;;7.90;2.90;;;8.80;19.00;;;;;;5032861;28;20250;-72
2021/12/18 11:23:20;;;;;;;13.00;5.20;;;8.80;15.10;;;;;;5033044;28;20491;-74
2021/12/18 11:25:47;;;;;;;15.47;2.77;;;8.80;9.20;;;;;;5033713;28;20421;-72
2021/12/18 11:28:14;;;;;;;3.87;3.10;;;8.90;6.70;;;;;;5033611;28;20410;-73
2021/12/18 11:30:39;;;;;;;9.43;4.00;;;8.90;4.60;;;;;;5033559;28;20411;-72
2021/12/18 11:33:05;;;;;;;8.37;3.33;;;8.90;2.20;;;;;;5032907;28;20760;-72
2021/12/18 11:35:31;;;;;;;6.23;3.67;;;8.90;1.00;;;;;;5033421;28;20310;-72
2021/12/18 11:38:03;;;;;;;8.13;3.67;;;8.90;1.00;;;;;;5033554;28;20741;-73
2021/12/18 11:40:38;;;;;;;5.47;3.17;;;8.90;1.00;;;;;;5033183;28;20406;-73
2021/12/18 11:43:08;;;;;;;2.70;2.50;;;8.90;1.00;;;;;;5032721;28;20407;-72
2021/12/18 11:45:36;;;;;;;3.37;2.93;;;8.90;1.00;;;;;;5033298;28;20405;-73
2021/12/18 11:48:04;;;;;;;9.90;3.43;;;8.90;1.00;;;;;;5033463;28;20400;-72
2021/12/18 11:50:32;;;;;;;3.40;2.50;;;8.80;1.00;;;;;;5033445;28;20424;-73
2021/12/18 11:53:11;;;;;;;11.60;3.57;;;8.80;1.00;;;;;;5032781;28;20396;-72
2021/12/18 11:55:49;;;;;;;8.13;3.77;;;8.90;1.00;;;;;;5033212;28;20433;-74
2021/12/18 11:58:18;;;;;;;7.27;3.97;;;8.90;1.00;;;;;;5033062;28;20406;-73
2021/12/18 12:00:44;;;;;;;7.63;3.27;;;8.80;1.00;;;;;;5033335;28;20744;-73
2021/12/18 12:03:14;;;;;;;7.23;3.43;;;8.80;1.00;;;;;;5032602;28;20399;-74
2021/12/18 12:05:45;;;;;;;6.50;3.60;;;8.80;1.00;;;;;;5033143;28;20412;-73
2021/12/18 12:08:30;;;;;;;7.33;3.40;;;8.80;1.00;;;;;;5033217;28;20450;-73
2021/12/18 12:11:24;;;;;;;5.10;3.20;;;8.90;1.00;;;;;;5033226;28;20409;-73
2021/12/18 12:14:13;;;;;;;12.20;3.43;;;8.90;1.00;;;;;;5032044;28;20919;-74
2021/12/18 12:16:47;;;;;;;17.20;4.90;;;8.90;1.00;;;;;;5032916;28;20423;-74
2021/12/18 12:19:24;;;;;;;5.67;3.20;;;8.90;1.00;;;;;;5033053;28;20407;-74
2021/12/18 12:21:57;;;;;;;6.10;3.37;;;8.90;1.00;;;;;;5032802;28;20447;-74
2021/12/18 12:24:26;;;;;;;4.27;3.07;;;8.90;1.00;;;;;;5032764;28;20396;-73
2021/12/18 12:26:53;;;;;;;11.80;4.17;;;9.00;1.00;;;;;;5033003;28;20984;-73
2021/12/18 12:29:20;;;;;;;4.43;2.40;;;9.00;1.00;;;;;;5031804;28;20440;-74
2021/12/18 12:31:59;;;;;;;4.70;3.30;;;9.10;1.00;;;;;;5036073;28;20406;-72
2021/12/18 12:34:32;;;;;;;3.40;2.87;;;9.10;1.00;;;;;;5036342;28;20443;-73
2021/12/18 12:37:24;;;;;;;6.73;3.30;;;9.10;1.00;;;;;;5036889;28;20958;-72
2021/12/18 12:39:52;;;;;;;4.43;3.10;;;9.20;1.00;;;;;;5036661;28;20909;-73
2021/12/18 12:42:18;;;;;;;4.13;3.63;;;9.20;1.00;;;;;;5036246;28;21292;-73
2021/12/18 12:45:06;;;;;;;5.70;3.00;;;9.20;1.00;;;;;;5035409;28;20415;-73
2021/12/18 12:47:32;;;;;;;10.20;3.40;;;9.20;1.00;;;;;;5036614;28;20411;-74
2021/12/18 12:50:20;;;;;;;6.40;3.20;;;9.20;1.00;;;;;;5036469;28;20909;-72
2021/12/18 12:53:06;;;;;;;9.10;3.47;;;9.20;1.00;;;;;;5035474;28;20404;-74
2021/12/18 12:55:44;;;;;;;10.40;4.40;;;9.20;1.00;;;;;;5036315;28;20432;-73
2021/12/18 12:58:26;;;;;;;6.37;3.30;;;9.30;1.00;;;;;;5036590;28;20924;-73
2021/12/18 13:00:57;;;;;;;7.73;3.07;;;9.30;1.00;;;;;;5036592;28;20448;-73
2021/12/18 13:03:29;;;;;;;7.70;3.33;;;9.30;1.00;;;;;;5035863;28;20402;-73
2021/12/18 13:06:00;;;;;;;7.80;3.50;;;9.40;1.00;;;;;;5036265;28;20426;-73
2021/12/18 13:08:27;;;;;;;7.70;3.70;;;9.40;1.00;;;;;;5036214;28;20818;-73
2021/12/18 13:10:55;;;;;;;8.30;3.63;;;9.30;1.00;;;;;;5036152;28;20392;-74
2021/12/18 13:13:26;;;;;;;26.03;6.87;;;9.40;1.00;;;;;;5035037;28;20437;-73
2021/12/18 13:16:00;;;;;;;8.67;3.07;;;9.30;1.00;;;;;;5036070;28;20414;-74
2021/12/18 13:18:41;;;;;;;9.03;3.97;;;9.40;1.00;;;;;;5036250;28;20398;-73
2021/12/18 13:21:23;;;;;;;5.67;4.07;;;9.40;1.00;;;;;;5036044;28;20482;-74
2021/12/18 13:24:01;;;;;;;7.63;3.13;;;9.40;1.00;;;;;;5035372;28;20496;-73
2021/12/18 13:26:37;;;;;;;5.03;2.57;;;9.40;1.00;;;;;;5035863;28;20783;-73
2021/12/18 13:29:07;;;;;;;10.83;3.17;;;9.50;1.00;;;;;;5034019;28;20416;-74
2021/12/18 13:31:38;;;;;;;11.50;3.00;;;9.50;1.00;;;;;;5035856;28;20459;-74
2021/12/18 13:34:11;;;;;;;11.63;3.77;;;9.50;1.00;;;;;;5035164;28;20407;-74
2021/12/18 13:36:39;;;;;;;4.23;2.87;;;9.50;1.00;;;;;;5035940;28;20471;-73
2021/12/18 13:39:10;;;;;;;5.47;2.83;;;9.50;1.00;;;;;;5035812;28;20405;-73
2021/12/18 13:41:36;;;;;;;10.33;3.63;;;9.60;1.00;;;;;;5035372;28;20449;-73
2021/12/18 13:44:03;;;;;;;4.67;2.77;;;9.60;1.00;;;;;;5034485;28;20458;-74
2021/12/18 13:46:30;;;;;;;8.50;2.87;;;9.60;1.00;;;;;;5035496;28;20243;-72
2021/12/18 13:48:56;;;;;;;4.50;2.53;;;9.60;1.00;;;;;;5034745;28;20424;-73
2021/12/18 13:51:22;;;;;;;9.97;3.87;;;9.50;1.00;;;;;;5035454;28;20439;-72
2021/12/18 13:54:03;;;;;;;5.63;3.20;;;9.60;1.00;;;;;;5033794;28;20505;-73
2021/12/18 13:56:43;;;;;;;5.40;3.50;;;9.50;1.00;;;;;;5035135;28;20930;-73
2021/12/18 13:59:17;;;;;;;5.20;3.70;;;9.50;1.00;;;;;;5034868;28;20437;-72
2021/12/18 14:01:43;;;;;;;10.93;3.30;;;9.50;1.00;;;;;;5035245;28;20438;-73
2021/12/18 14:04:17;;;;;;;10.13;2.80;;;9.50;1.00;;;;;;5034540;28;20478;-73